createdAt,value
2023-05-22T00:02:33.152Z,12.92
2023-05-22T00:07:35.077Z,12.87
2023-05-22T00:12:36.779Z,12.85
2023-05-22T00:17:38.890Z,12.82
2023-05-22T00:22:40.949Z,12.77
2023-05-22T00:27:42.642Z,12.74
2023-05-22T00:32:44.644Z,12.70
2023-05-22T00:37:46.897Z,12.63
2023-05-22T00:42:48.656Z,12.56
2023-05-22T00:47:50.858Z,12.51
2023-05-22T00:52:52.810Z,12.45
2023-05-22T00:57:55.466Z,12.40
2023-05-22T01:02:58.110Z,12.31
2023-05-22T01:08:00.526Z,12.22
2023-05-22T01:13:30.260Z,12.10
2023-05-22T01:18:58.919Z,11.96
2023-05-22T01:24:12.224Z,11.80
2023-05-22T01:29:42.383Z,11.62
2023-05-22T01:34:47.995Z,11.48
2023-05-22T01:39:52.480Z,11.36
2023-05-22T01:44:54.308Z,11.29
2023-05-22T01:49:57.527Z,11.26
2023-05-22T01:55:10.123Z,11.22
2023-05-22T02:00:17.541Z,11.12
2023-05-22T02:05:23.386Z,11.02
2023-05-22T02:10:28.111Z,10.90
2023-05-22T02:15:30.701Z,10.80
2023-05-22T02:20:34.039Z,10.70
2023-05-22T02:25:36.233Z,10.62
2023-05-22T02:30:38.407Z,10.57
2023-05-22T02:35:40.788Z,10.54
2023-05-22T02:40:42.923Z,10.52
2023-05-22T02:45:45.226Z,10.46
2023-05-22T02:50:48.778Z,10.39
2023-05-22T02:55:52.938Z,10.34
2023-05-22T03:00:54.926Z,10.33
2023-05-22T03:05:58.610Z,10.37
2023-05-22T03:11:02.016Z,10.43
2023-05-22T03:16:03.960Z,10.48
2023-05-22T03:21:06.642Z,10.53
2023-05-22T03:26:08.421Z,10.58
2023-05-22T03:31:11.308Z,10.65
2023-05-22T03:36:26.571Z,10.77
2023-05-22T03:41:28.422Z,10.89
2023-05-22T03:46:30.460Z,11.03
2023-05-22T03:51:32.569Z,11.15
2023-05-22T03:56:35.536Z,11.26
2023-05-22T04:01:39.170Z,11.37
2023-05-22T04:06:43.811Z,11.49
2023-05-22T04:11:48.771Z,11.65
2023-05-22T04:16:51.124Z,11.85
2023-05-22T04:21:53.419Z,12.07
2023-05-22T04:26:55.205Z,12.28
2023-05-22T04:31:56.990Z,12.47
2023-05-22T04:37:00.187Z,12.64
2023-05-22T04:42:06.002Z,12.82
2023-05-22T04:47:11.628Z,13.00
2023-05-22T04:52:13.536Z,13.22
2023-05-22T04:57:17.255Z,13.47
2023-05-22T05:02:20.149Z,13.69
2023-05-22T05:07:23.759Z,13.91
2023-05-22T05:12:25.549Z,14.18
2023-05-22T05:17:27.809Z,14.45
2023-05-22T05:22:29.596Z,14.61
2023-05-22T05:27:33.530Z,14.79
2023-05-22T05:32:37.390Z,14.73
2023-05-22T05:37:56.681Z,15.01
2023-05-22T05:42:59.342Z,15.24
2023-05-22T05:48:01.756Z,15.51
2023-05-22T05:53:05.284Z,15.76
2023-05-22T05:58:09.431Z,16.05
2023-05-22T06:03:17.926Z,16.33
2023-05-22T06:08:55.829Z,16.61
2023-05-22T06:14:03.296Z,16.94
2023-05-22T06:19:05.103Z,17.17
2023-05-22T06:24:07.026Z,17.33
2023-05-22T06:29:09.429Z,17.55
2023-05-22T06:34:12.210Z,17.73
2023-05-22T06:39:14.308Z,17.86
2023-05-22T06:44:42.256Z,17.96
2023-05-22T06:49:44.272Z,18.11
2023-05-22T06:54:46.090Z,18.26
2023-05-22T06:59:49.413Z,18.38
2023-05-22T07:05:11.836Z,18.39
2023-05-22T07:10:27.690Z,18.43
2023-05-22T07:15:30.094Z,18.61
2023-05-22T07:20:32.700Z,18.89
2023-05-22T07:25:43.243Z,19.27
2023-05-22T07:30:45.570Z,19.65
2023-05-22T07:35:47.578Z,20.02
2023-05-22T07:40:49.926Z,20.36
2023-05-22T07:45:54.171Z,20.65
2023-05-22T07:50:58.513Z,20.87
2023-05-22T07:56:00.847Z,21.08
2023-05-22T08:01:05.827Z,21.30
2023-05-22T08:06:10.048Z,21.45
2023-05-22T08:11:12.029Z,21.54
2023-05-22T08:16:13.943Z,21.61
2023-05-22T08:21:15.743Z,21.66
2023-05-22T08:26:17.542Z,21.71
2023-05-22T08:31:19.336Z,21.85
2023-05-22T08:36:23.391Z,22.03
2023-05-22T08:41:25.546Z,22.17
2023-05-22T08:46:30.107Z,22.21
2023-05-22T08:51:34.406Z,22.27
2023-05-22T08:56:39.716Z,22.29
2023-05-22T09:01:49.187Z,22.27
2023-05-22T09:06:51.963Z,22.33
2023-05-22T09:11:54.821Z,22.40
2023-05-22T09:16:56.972Z,22.39
2023-05-22T09:22:06.325Z,22.30
2023-05-22T09:27:08.720Z,22.29
2023-05-22T09:32:13.907Z,22.31
2023-05-22T09:37:17.676Z,22.41
2023-05-22T09:42:19.541Z,22.62
2023-05-22T09:47:22.400Z,22.88
2023-05-22T09:52:24.559Z,23.18
2023-05-22T09:57:27.937Z,23.34
2023-05-22T10:02:30.718Z,23.41
2023-05-22T10:07:37.664Z,23.43
2023-05-22T10:12:47.990Z,23.50
2023-05-22T10:17:50.348Z,23.81
2023-05-22T10:22:54.149Z,24.25
2023-05-22T10:27:57.384Z,24.49
2023-05-22T10:33:14.165Z,24.60
2023-05-22T10:38:24.965Z,24.79
2023-05-22T10:43:32.043Z,24.89
2023-05-22T10:48:41.952Z,25.18
2023-05-22T10:53:45.382Z,25.40
2023-05-22T10:59:02.777Z,25.39
2023-05-22T11:04:04.584Z,25.39
2023-05-22T11:09:29.063Z,25.48
2023-05-22T11:14:31.098Z,25.74
2023-05-22T11:19:32.909Z,25.72
2023-05-22T11:24:35.149Z,25.96
2023-05-22T11:29:38.929Z,26.21
2023-05-22T11:34:41.127Z,25.99
2023-05-22T11:39:42.966Z,26.00
2023-05-22T11:44:48.105Z,26.01
2023-05-22T11:49:49.804Z,25.93
2023-05-22T11:54:52.948Z,25.74
2023-05-22T11:59:54.729Z,25.66
2023-05-22T12:05:10.372Z,25.49
2023-05-22T12:10:15.601Z,25.13
2023-05-22T12:15:21.298Z,24.77
2023-05-22T12:20:23.317Z,24.34
2023-05-22T12:25:37.301Z,24.07
2023-05-22T12:30:42.652Z,23.76
2023-05-22T12:35:44.599Z,23.78
2023-05-22T12:40:46.754Z,23.79
2023-05-22T12:45:49.056Z,23.76
2023-05-22T12:50:51.132Z,23.73
2023-05-22T12:55:52.914Z,23.72
2023-05-22T13:00:54.654Z,23.66
2023-05-22T13:05:56.346Z,23.67
2023-05-22T13:10:58.195Z,23.61
2023-05-22T13:16:00.196Z,23.62
2023-05-22T13:21:02.273Z,23.72
2023-05-22T13:26:04.255Z,23.76
2023-05-22T13:31:06.081Z,23.79
2023-05-22T13:36:07.885Z,23.80
2023-05-22T13:41:10.257Z,23.86
2023-05-22T13:46:12.029Z,23.89
2023-05-22T13:51:13.831Z,24.05
2023-05-22T13:56:15.632Z,24.06
2023-05-22T14:01:17.424Z,24.18
2023-05-22T14:06:19.546Z,24.10
2023-05-22T14:11:22.453Z,24.08
2023-05-22T14:16:24.317Z,24.17
2023-05-22T14:21:27.249Z,23.93
2023-05-22T14:26:28.988Z,23.60
2023-05-22T14:31:31.019Z,23.57
2023-05-22T14:36:32.896Z,23.69
2023-05-22T14:41:34.656Z,23.62
2023-05-22T14:46:36.549Z,23.67
2023-05-22T14:51:38.408Z,23.86
2023-05-22T14:56:40.391Z,24.06
2023-05-22T15:01:42.240Z,24.20
2023-05-22T15:06:45.272Z,24.36
2023-05-22T15:11:49.265Z,24.67
2023-05-22T15:16:51.286Z,25.05
2023-05-22T15:21:54.641Z,25.04
2023-05-22T15:26:57.063Z,24.93
2023-05-22T15:31:59.911Z,24.87
2023-05-22T15:37:01.753Z,24.86
2023-05-22T15:42:06.673Z,24.73
2023-05-22T15:47:08.815Z,24.34
2023-05-22T15:52:10.560Z,23.98
2023-05-22T15:57:12.478Z,23.66
2023-05-22T16:02:14.385Z,23.50
2023-05-22T16:07:17.075Z,23.61
2023-05-22T16:12:18.946Z,23.73
2023-05-22T16:17:20.913Z,23.71
2023-05-22T16:22:24.613Z,23.65
2023-05-22T16:27:28.191Z,23.73
2023-05-22T16:32:30.051Z,23.70
2023-05-22T16:37:32.722Z,23.55
2023-05-22T16:42:35.344Z,23.29
2023-05-22T16:47:37.203Z,23.00
2023-05-22T16:52:39.153Z,22.81
2023-05-22T16:57:41.018Z,22.68
2023-05-22T17:02:43.112Z,22.55
2023-05-22T17:07:44.973Z,22.51
2023-05-22T17:12:46.861Z,22.46
2023-05-22T17:17:48.650Z,22.43
2023-05-22T17:22:50.511Z,22.38
2023-05-22T17:27:52.341Z,22.26
2023-05-22T17:32:56.858Z,22.08
2023-05-22T17:37:58.863Z,21.75
2023-05-22T17:43:02.490Z,21.69
2023-05-22T17:48:04.451Z,21.43
2023-05-22T17:53:06.451Z,21.13
2023-05-22T17:58:08.167Z,20.79
2023-05-22T18:03:10.241Z,20.51
2023-05-22T18:08:12.117Z,20.18
2023-05-22T18:13:13.897Z,19.83
2023-05-22T18:18:16.553Z,19.48
2023-05-22T18:23:19.487Z,19.16
2023-05-22T18:28:26.225Z,18.82
2023-05-22T18:33:28.124Z,18.50
2023-05-22T18:38:30.687Z,18.22
2023-05-22T18:43:32.479Z,17.91
2023-05-22T18:48:34.157Z,17.61
2023-05-22T18:53:36.166Z,17.33
2023-05-22T18:58:41.513Z,17.09
2023-05-22T19:03:43.327Z,16.86
2023-05-22T19:08:45.664Z,16.66
2023-05-22T19:13:47.567Z,16.49
2023-05-22T19:18:49.316Z,16.31
2023-05-22T19:23:51.227Z,16.13
2023-05-22T19:28:53.575Z,15.95
2023-05-22T19:33:55.582Z,15.77
2023-05-22T19:38:57.314Z,15.59
2023-05-22T19:43:59.232Z,15.42
2023-05-22T19:49:01.056Z,15.25
2023-05-22T19:54:03.253Z,15.12
2023-05-22T19:59:04.960Z,15.00
2023-05-22T20:04:06.833Z,14.92
2023-05-22T20:09:09.043Z,14.81
2023-05-22T20:14:13.533Z,14.66
2023-05-22T20:19:15.323Z,14.49
2023-05-22T20:24:19.069Z,14.39
2023-05-22T20:29:22.073Z,14.31
2023-05-22T20:34:36.926Z,14.24
2023-05-22T20:39:38.648Z,14.20
2023-05-22T20:44:41.370Z,14.15
2023-05-22T20:49:43.064Z,14.11
2023-05-22T20:54:44.800Z,14.03
2023-05-22T20:59:46.585Z,13.99
2023-05-22T21:04:48.393Z,13.95
2023-05-22T21:09:51.093Z,13.91
2023-05-22T21:14:56.244Z,13.85
2023-05-22T21:19:58.179Z,13.75
2023-05-22T21:24:59.890Z,13.68
2023-05-22T21:30:01.694Z,13.60
2023-05-22T21:35:08.642Z,13.53
2023-05-22T21:40:11.836Z,13.48
2023-05-22T21:45:15.053Z,13.42
2023-05-22T21:50:18.928Z,13.32
2023-05-22T21:55:21.794Z,13.25
2023-05-22T22:00:23.760Z,13.27
2023-05-22T22:05:27.660Z,13.31
2023-05-22T22:10:29.449Z,13.28
2023-05-22T22:15:32.202Z,13.23
2023-05-22T22:20:44.438Z,13.17
2023-05-22T22:25:57.309Z,13.06
2023-05-22T22:30:59.188Z,12.95
2023-05-22T22:36:01.790Z,12.87
2023-05-22T22:41:04.830Z,12.78
2023-05-22T22:46:07.364Z,12.73
2023-05-22T22:51:09.680Z,12.67
2023-05-22T22:56:12.030Z,12.64
2023-05-22T23:01:13.740Z,12.60
2023-05-22T23:06:17.165Z,12.55
2023-05-22T23:11:20.201Z,12.48
2023-05-22T23:16:23.054Z,12.36
2023-05-22T23:21:24.898Z,12.20
2023-05-22T23:26:30.849Z,12.00
2023-05-22T23:31:33.072Z,11.76
2023-05-22T23:36:34.953Z,11.52
2023-05-22T23:41:37.684Z,11.29
2023-05-22T23:46:41.527Z,11.06
2023-05-22T23:51:45.647Z,10.90
2023-05-22T23:56:47.366Z,10.81
